Time;durP1;ratioP1;P1;durP2;ratioP2;P2;SDS_P1;SDS_P2;PMS_P1;PMS_P2;Temp;Humidity;BMP_temperature;BMP_pressure;BME280_temperature;BME280_humidity;BME280_pressure;Samples;Min_cycle;Max_cycle;Signal;HPM_P1;HPM_P2
2021/11/07 00:04:00;;;;;;;24.88;11.48;;;;;;;7.75;68.72;97968.97;4977780;28;20399;-79
2021/11/07 00:06:34;;;;;;;23.02;11.02;;;;;;;7.66;69.84;97966.63;4971313;28;20118;-78
2021/11/07 00:09:12;;;;;;;20.92;10.52;;;;;;;7.76;69.24;97960.19;4979901;28;20351;-80
2021/11/07 00:11:40;;;;;;;23.13;11.10;;;;;;;7.88;68.89;97961.13;4990513;28;20087;-80
2021/11/07 00:14:06;;;;;;;20.00;10.20;;;;;;;7.90;68.83;97943.59;4970017;28;20477;-80
2021/11/07 00:16:35;;;;;;;20.75;10.45;;;;;;;7.68;69.60;97927.53;4970138;28;20086;-80
2021/11/07 00:22:12;;;;;;;21.65;10.68;;;;;;;7.80;69.08;97912.91;4915316;29;20422;-80
2021/11/07 00:24:55;;;;;;;23.23;10.60;;;;;;;7.81;69.11;97916.28;4926541;29;20210;-80
2021/11/07 00:27:31;;;;;;;21.63;10.85;;;;;;;7.90;68.35;97935.81;4926805;29;20036;-79
2021/11/07 00:32:48;;;;;;;21.75;10.68;;;;;;;7.75;69.11;97927.50;4923507;29;20039;-81
2021/11/07 00:38:01;;;;;;;20.08;10.20;;;;;;;7.82;68.74;97910.91;4926739;29;20494;-80
2021/11/07 00:40:39;;;;;;;21.92;10.70;;;;;;;7.92;68.50;97912.22;4929008;29;20036;-80
2021/11/07 00:43:22;;;;;;;23.52;10.23;;;;;;;7.80;69.22;97901.75;4929718;29;20644;-79
2021/11/07 00:46:14;;;;;;;24.77;10.85;;;;;;;7.82;68.66;97895.34;4927845;29;20053;-80
2021/11/07 00:48:56;;;;;;;19.42;9.95;;;;;;;7.80;68.47;97883.59;4910927;29;20031;-79
2021/11/07 00:54:00;;;;;;;20.80;9.98;;;;;;;7.86;68.94;97878.38;4913724;29;20482;-80
2021/11/07 00:56:33;;;;;;;20.77;10.88;;;;;;;7.96;69.01;97893.47;4969841;28;20042;-80
2021/11/07 00:59:09;;;;;;;21.45;10.73;;;;;;;7.96;68.52;97898.66;4990143;28;20074;-80
2021/11/07 01:01:39;;;;;;;21.00;10.60;;;;;;;7.79;69.07;97892.38;4979579;28;20390;-80
2021/11/07 01:04:06;;;;;;;24.65;11.50;;;;;;;7.82;68.94;97884.19;5010385;28;20476;-80
2021/11/07 01:06:33;;;;;;;20.85;10.98;;;;;;;7.90;68.71;97888.31;5001665;28;20137;-79
2021/11/07 01:09:00;;;;;;;23.25;11.45;;;;;;;7.86;68.61;97880.97;4973312;28;20076;-80
2021/11/07 01:11:26;;;;;;;21.33;10.27;;;;;;;7.97;68.67;97869.13;4959426;28;20499;-80
2021/11/07 01:13:51;;;;;;;21.42;11.02;;;;;;;7.98;69.09;97875.88;4992355;28;20476;-81
2021/11/07 01:16:17;;;;;;;20.88;9.95;;;;;;;7.91;69.17;97872.56;4975913;28;20065;-82
2021/11/07 01:18:42;;;;;;;19.98;10.52;;;;;;;7.93;68.39;97873.13;4975774;28;20022;-82
2021/11/07 01:21:11;;;;;;;22.77;11.15;;;;;;;7.88;68.61;97872.97;4969963;28;20026;-82
2021/11/07 01:23:42;;;;;;;22.48;11.27;;;;;;;7.89;69.33;97877.16;4973039;28;20100;-82
2021/11/07 01:26:20;;;;;;;18.58;9.63;;;;;;;7.91;69.18;97856.22;4990579;28;20118;-82
2021/11/07 01:28:49;;;;;;;24.00;11.40;;;;;;;7.90;69.02;97852.84;4972710;28;20193;-82
2021/11/07 01:31:15;;;;;;;19.60;10.00;;;;;;;7.98;69.07;97849.97;4975785;28;20122;-82
2021/11/07 01:33:40;;;;;;;22.10;11.35;;;;;;;7.92;69.37;97853.41;4974047;28;20450;-82
2021/11/07 01:39:09;;;;;;;22.42;12.27;;;;;;;7.64;70.31;97843.41;4960117;28;20038;-81
2021/11/07 01:41:44;;;;;;;22.60;11.73;;;;;;;7.81;69.58;97839.34;4983225;28;20359;-82
2021/11/07 01:44:11;;;;;;;25.77;11.05;;;;;;;7.90;68.90;97845.06;4993202;28;20112;-82
2021/11/07 01:46:41;;;;;;;24.23;13.00;;;;;;;7.84;69.12;97843.28;4992131;28;20409;-81
2021/11/07 01:49:20;;;;;;;26.05;12.27;;;;;;;7.76;69.27;97846.13;4986653;28;20423;-82
2021/11/07 01:51:53;;;;;;;24.00;11.30;;;;;;;7.68;69.66;97837.59;4973396;28;20026;-82
2021/11/07 01:54:27;;;;;;;25.63;12.25;;;;;;;7.74;69.28;97828.19;4968035;28;20053;-82
2021/11/07 01:56:53;;;;;;;24.15;11.77;;;;;;;7.77;69.57;97816.63;4972441;28;20525;-82
2021/11/07 01:59:19;;;;;;;23.48;11.57;;;;;;;7.76;69.34;97823.59;4988635;28;20113;-82
2021/11/07 02:01:52;;;;;;;24.65;11.93;;;;;;;7.68;69.52;97829.03;4990757;28;20036;-82
2021/11/07 02:04:18;;;;;;;30.15;12.68;;;;;;;7.84;69.13;97817.38;4990752;28;20335;-83
2021/11/07 02:06:44;;;;;;;26.98;12.75;;;;;;;7.76;69.43;97830.56;4990887;28;20120;-82
2021/11/07 02:09:09;;;;;;;25.02;12.85;;;;;;;7.68;69.46;97836.81;5008066;28;20044;-82
2021/11/07 02:11:34;;;;;;;26.50;12.10;;;;;;;7.58;69.85;97847.63;4984296;28;20038;-82
2021/11/07 02:14:01;;;;;;;25.02;11.82;;;;;;;7.64;70.05;97838.22;5002976;28;20088;-82
2021/11/07 02:16:26;;;;;;;25.50;13.75;;;;;;;7.89;69.25;97830.50;4975060;28;20037;-82
2021/11/07 02:18:52;;;;;;;29.52;12.73;;;;;;;7.85;69.32;97826.75;4958325;28;20525;-82
2021/11/07 02:21:17;;;;;;;21.42;10.63;;;;;;;7.83;69.28;97826.94;4990005;28;20045;-82
2021/11/07 02:23:42;;;;;;;25.92;12.20;;;;;;;7.81;69.28;97825.56;4990823;28;20042;-84
2021/11/07 02:26:09;;;;;;;21.75;11.98;;;;;;;7.88;68.68;97815.91;4978743;28;20502;-82
2021/11/07 02:28:46;;;;;;;24.25;12.63;;;;;;;7.59;69.46;97825.09;4958471;28;20038;-82
2021/11/07 02:31:15;;;;;;;26.45;12.52;;;;;;;7.81;69.04;97828.16;4989271;28;20112;-83
2021/11/07 02:33:41;;;;;;;23.73;12.45;;;;;;;7.87;69.69;97816.94;4990523;28;20426;-83
2021/11/07 02:36:16;;;;;;;25.85;12.40;;;;;;;7.66;69.86;97823.28;4991018;28;20389;-83
2021/11/07 02:38:42;;;;;;;26.05;12.27;;;;;;;7.96;68.96;97823.44;4991101;28;20030;-82
2021/11/07 02:41:08;;;;;;;25.00;11.50;;;;;;;7.92;68.83;97818.88;4989577;28;20091;-82
2021/11/07 02:43:43;;;;;;;24.35;12.27;;;;;;;7.75;69.33;97836.78;4990917;28;20026;-82
2021/11/07 02:46:15;;;;;;;28.63;13.15;;;;;;;7.99;68.88;97841.19;5007336;28;20065;-82
2021/11/07 02:48:41;;;;;;;26.45;13.48;;;;;;;8.00;68.76;97823.81;4991268;28;20034;-82
2021/11/07 02:51:07;;;;;;;29.02;12.48;;;;;;;8.03;68.61;97826.00;4988617;28;20065;-83
2021/11/07 02:53:33;;;;;;;25.27;13.20;;;;;;;8.07;67.73;97827.16;4977777;28;20459;-82
2021/11/07 02:55:58;;;;;;;26.08;12.55;;;;;;;8.05;68.18;97804.03;4974327;28;20041;-83
2021/11/07 02:58:23;;;;;;;29.50;12.60;;;;;;;8.03;68.72;97815.63;4990380;28;20041;-83
2021/11/07 03:00:49;;;;;;;22.10;11.38;;;;;;;8.04;68.81;97833.56;4990112;28;20053;-82
2021/11/07 03:03:15;;;;;;;25.88;11.57;;;;;;;8.05;68.71;97823.97;4989031;28;20343;-82
2021/11/07 03:05:40;;;;;;;23.90;12.30;;;;;;;8.04;68.81;97828.38;4974026;28;20143;-82
2021/11/07 03:08:06;;;;;;;26.00;12.27;;;;;;;8.05;68.63;97817.00;4990027;28;20113;-82
2021/11/07 03:10:31;;;;;;;23.67;11.70;;;;;;;7.75;69.68;97805.66;4989669;28;20320;-83
2021/11/07 03:13:11;;;;;;;22.83;12.88;;;;;;;7.68;69.82;97793.53;4982804;28;20060;-83
2021/11/07 03:15:39;;;;;;;26.17;12.15;;;;;;;7.90;69.35;97800.97;4970583;28;20042;-82
2021/11/07 03:18:05;;;;;;;20.92;12.52;;;;;;;8.00;68.48;97805.66;4971019;28;20121;-82
2021/11/07 03:20:31;;;;;;;23.73;11.30;;;;;;;8.02;68.68;97799.28;4954886;28;20129;-82
2021/11/07 03:22:56;;;;;;;23.70;12.55;;;;;;;7.90;68.55;97800.16;5000265;28;20026;-83
2021/11/07 03:25:23;;;;;;;23.67;12.52;;;;;;;7.99;69.00;97804.09;4973520;28;20065;-82
2021/11/07 03:27:49;;;;;;;23.13;12.50;;;;;;;7.97;68.82;97813.88;4990193;28;20129;-82
2021/11/07 03:32:57;;;;;;;21.08;11.68;;;;;;;7.76;69.38;97813.25;4986046;28;20781;-83
2021/11/07 03:35:22;;;;;;;20.85;11.13;;;;;;;7.73;69.14;97802.47;4999312;28;20482;-82
2021/11/07 03:37:57;;;;;;;23.58;11.15;;;;;;;7.86;69.12;97794.59;4990230;28;20126;-82
2021/11/07 03:40:26;;;;;;;25.15;11.80;;;;;;;7.77;68.69;97788.09;5007291;28;20030;-82
2021/11/07 03:42:51;;;;;;;23.35;11.25;;;;;;;7.83;68.94;97785.47;4989394;28;20519;-82
2021/11/07 03:45:18;;;;;;;23.45;11.38;;;;;;;7.77;69.16;97780.31;5006037;28;20068;-83
2021/11/07 03:47:44;;;;;;;28.52;12.82;;;;;;;7.57;69.98;97776.06;5005841;28;20448;-82
2021/11/07 03:50:09;;;;;;;22.83;12.68;;;;;;;7.63;69.84;97769.25;4987775;28;20365;-82
2021/11/07 03:52:35;;;;;;;23.52;11.88;;;;;;;7.76;69.46;97769.19;4972850;28;20117;-82
2021/11/07 03:55:00;;;;;;;20.33;10.35;;;;;;;7.74;68.88;97755.59;4988196;28;20039;-82
2021/11/07 03:57:26;;;;;;;22.35;11.93;;;;;;;7.66;69.60;97748.91;4990248;28;20114;-84
2021/11/07 03:59:51;;;;;;;19.20;10.90;;;;;;;7.75;69.19;97730.50;4989425;28;20068;-83
2021/11/07 04:02:17;;;;;;;20.95;10.55;;;;;;;7.65;69.57;97747.31;4988814;28;20038;-82
2021/11/07 04:04:43;;;;;;;19.83;11.32;;;;;;;7.56;69.61;97743.41;4989092;28;20072;-83
2021/11/07 04:07:09;;;;;;;19.20;11.13;;;;;;;7.76;69.24;97742.44;4970395;28;20022;-83
2021/11/07 04:09:34;;;;;;;20.30;12.23;;;;;;;7.85;68.36;97736.00;4990264;28;20040;-83
2021/11/07 04:12:00;;;;;;;20.73;10.80;;;;;;;7.86;68.72;97743.56;5007781;28;20034;-83
2021/11/07 04:14:32;;;;;;;21.85;11.90;;;;;;;7.78;69.24;97753.38;4992126;28;20026;-82
2021/11/07 04:16:58;;;;;;;20.35;11.82;;;;;;;7.80;69.27;97756.59;4978843;28;20385;-81
2021/11/07 04:19:24;;;;;;;23.98;12.00;;;;;;;7.84;68.70;97739.59;4993959;28;20071;-82
2021/11/07 04:21:51;;;;;;;22.75;10.68;;;;;;;7.74;69.63;97739.28;4977120;28;20506;-82
2021/11/07 04:24:16;;;;;;;20.05;11.20;;;;;;;7.68;68.86;97735.72;4994334;28;20056;-83
2021/11/07 04:26:42;;;;;;;28.92;11.50;;;;;;;7.62;69.19;97724.41;5011374;28;20034;-83
2021/11/07 04:29:07;;;;;;;21.63;10.80;;;;;;;7.73;69.45;97728.13;4961856;28;20033;-82
2021/11/07 04:31:33;;;;;;;20.25;10.63;;;;;;;7.61;69.17;97717.63;4993120;28;20018;-82
2021/11/07 04:33:58;;;;;;;21.73;11.57;;;;;;;7.77;69.27;97712.94;5011185;28;20388;-83
2021/11/07 04:36:24;;;;;;;22.20;11.20;;;;;;;7.71;69.08;97718.94;4993595;28;20081;-82
2021/11/07 04:38:49;;;;;;;27.90;11.85;;;;;;;7.63;69.63;97722.63;4993630;28;20551;-82
2021/11/07 04:41:18;;;;;;;21.65;11.27;;;;;;;7.54;69.82;97723.88;4993173;28;20480;-83
2021/11/07 04:43:46;;;;;;;21.35;11.05;;;;;;;7.71;69.07;97727.53;4994396;28;20026;-81
2021/11/07 04:46:14;;;;;;;23.15;10.95;;;;;;;7.77;69.15;97725.91;4993605;28;20034;-82
2021/11/07 04:48:44;;;;;;;21.35;10.70;;;;;;;7.79;68.85;97722.06;4977697;28;20480;-83
2021/11/07 04:51:09;;;;;;;18.88;10.30;;;;;;;7.93;68.71;97702.00;4993312;28;20033;-82
2021/11/07 04:53:35;;;;;;;20.67;10.38;;;;;;;7.72;69.08;97695.41;4993258;28;20026;-81
2021/11/07 04:56:00;;;;;;;21.83;11.07;;;;;;;7.57;69.25;97682.78;4976975;28;20537;-83
2021/11/07 04:58:26;;;;;;;24.88;11.90;;;;;;;7.58;69.63;97666.22;4993446;28;20132;-82
2021/11/07 05:00:51;;;;;;;23.10;11.35;;;;;;;7.64;68.86;97665.38;4976764;28;20392;-82
2021/11/07 05:03:16;;;;;;;21.67;11.05;;;;;;;7.61;69.48;97668.41;4992402;28;20053;-83
2021/11/07 05:05:42;;;;;;;22.30;11.20;;;;;;;7.68;69.29;97682.09;4976820;28;20041;-83
2021/11/07 05:08:07;;;;;;;23.55;11.82;;;;;;;7.47;69.18;97669.50;4975702;28;20037;-82
2021/11/07 05:10:34;;;;;;;25.17;11.95;;;;;;;7.64;68.56;97680.94;4976671;28;20092;-82
2021/11/07 05:13:00;;;;;;;20.70;10.95;;;;;;;7.76;68.99;97678.44;4977279;28;20029;-82
2021/11/07 05:15:25;;;;;;;23.08;10.75;;;;;;;7.67;69.20;97664.94;4993418;28;20088;-83
2021/11/07 05:17:51;;;;;;;20.05;10.90;;;;;;;7.60;69.20;97645.28;4992771;28;20040;-83
2021/11/07 05:20:16;;;;;;;23.17;10.93;;;;;;;7.67;68.58;97644.22;4992093;28;20026;-82
2021/11/07 05:22:42;;;;;;;19.77;10.68;;;;;;;7.66;68.98;97647.03;4981427;28;20122;-83
2021/11/07 05:25:09;;;;;;;20.45;10.27;;;;;;;7.57;68.91;97640.53;4957136;28;20128;-83
2021/11/07 05:27:35;;;;;;;24.10;11.60;;;;;;;7.19;71.09;97642.22;4973410;28;20034;-82
2021/11/07 05:30:06;;;;;;;23.38;10.63;;;;;;;7.33;70.13;97629.97;4957110;28;20034;-82
2021/11/07 05:32:32;;;;;;;23.63;11.23;;;;;;;7.35;70.00;97619.38;4957217;28;20335;-81
2021/11/07 05:34:57;;;;;;;27.92;11.90;;;;;;;7.41;70.12;97626.31;4948135;28;20022;-82
2021/11/07 05:37:24;;;;;;;19.67;10.50;;;;;;;7.24;69.67;97605.34;4993006;28;20447;-83
2021/11/07 05:39:53;;;;;;;24.02;11.30;;;;;;;7.32;70.02;97608.44;4992321;28;20033;-81
2021/11/07 05:42:19;;;;;;;23.60;11.23;;;;;;;7.41;70.02;97610.78;4976528;28;20033;-82
2021/11/07 05:44:45;;;;;;;22.27;11.05;;;;;;;7.26;69.89;97590.38;4992498;28;20026;-82
2021/11/07 05:47:10;;;;;;;24.52;10.25;;;;;;;7.24;70.09;97593.16;4992684;28;20026;-81
2021/11/07 05:49:35;;;;;;;23.48;10.30;;;;;;;7.41;70.04;97596.03;4992676;28;20380;-83
2021/11/07 05:52:01;;;;;;;21.63;11.02;;;;;;;7.53;69.48;97608.28;4987128;28;20045;-82
2021/11/07 05:54:26;;;;;;;21.15;10.90;;;;;;;7.39;69.66;97617.97;4971387;28;20022;-82
2021/11/07 05:56:52;;;;;;;20.85;10.90;;;;;;;7.50;69.30;97609.50;4976256;28;20088;-81
2021/11/07 05:59:18;;;;;;;18.95;9.85;;;;;;;7.54;69.23;97605.47;4991742;28;20064;-81
2021/11/07 06:01:43;;;;;;;24.27;11.25;;;;;;;7.35;70.36;97606.44;4991292;28;20084;-81
2021/11/07 06:04:08;;;;;;;20.30;10.73;;;;;;;7.47;70.19;97602.94;4991198;28;20120;-81
2021/11/07 06:06:34;;;;;;;19.95;10.80;;;;;;;7.43;70.06;97606.16;4971798;28;20413;-81
2021/11/07 06:09:00;;;;;;;22.20;10.38;;;;;;;7.47;69.93;97604.72;4958590;28;20442;-82
2021/11/07 06:11:25;;;;;;;21.77;11.00;;;;;;;7.30;69.76;97597.50;4991145;28;20034;-82
2021/11/07 06:13:51;;;;;;;19.73;10.93;;;;;;;7.49;69.58;97593.16;4974886;28;20030;-81
2021/11/07 06:16:17;;;;;;;19.30;9.98;;;;;;;7.42;69.85;97591.63;4975267;28;20038;-82
2021/11/07 06:18:42;;;;;;;22.88;10.70;;;;;;;7.14;70.67;97579.91;4990719;28;20033;-82
2021/11/07 06:21:09;;;;;;;20.52;10.05;;;;;;;7.37;70.09;97566.38;4990572;28;20546;-81
2021/11/07 06:23:36;;;;;;;24.35;11.32;;;;;;;7.40;70.67;97570.31;5007132;28;20066;-81
2021/11/07 06:26:01;;;;;;;21.05;11.18;;;;;;;7.46;70.11;97572.06;4991495;28;20116;-81
2021/11/07 06:28:27;;;;;;;20.80;11.15;;;;;;;7.37;69.94;97557.78;4991200;28;20578;-82
2021/11/07 06:30:53;;;;;;;24.33;10.98;;;;;;;7.08;71.22;97562.66;4990548;28;20030;-81
2021/11/07 06:33:19;;;;;;;21.98;10.75;;;;;;;7.32;70.25;97561.81;4991199;28;20156;-81
2021/11/07 06:35:44;;;;;;;17.85;10.85;;;;;;;7.36;70.13;97576.94;4974182;28;20034;-80
2021/11/07 06:38:10;;;;;;;20.38;11.60;;;;;;;7.45;69.72;97580.84;4959384;28;20246;-81
2021/11/07 06:40:35;;;;;;;19.33;10.25;;;;;;;7.38;70.66;97574.94;4991217;28;20399;-81
2021/11/07 06:43:02;;;;;;;21.85;10.73;;;;;;;7.40;70.32;97589.28;4975367;28;20423;-81
2021/11/07 06:45:27;;;;;;;18.58;10.15;;;;;;;7.38;70.53;97577.53;4975799;28;20385;-82
2021/11/07 06:47:53;;;;;;;17.52;10.80;;;;;;;7.40;70.69;97562.56;4991492;28;20040;-81
2021/11/07 06:50:18;;;;;;;16.45;9.13;;;;;;;7.43;70.45;97573.28;4974580;28;20033;-81
2021/11/07 06:52:45;;;;;;;16.88;8.43;;;;;;;7.37;70.70;97581.91;4973790;28;20117;-82
2021/11/07 06:55:11;;;;;;;18.55;9.57;;;;;;;7.42;70.41;97589.03;4972129;28;20030;-82
2021/11/07 06:57:38;;;;;;;19.17;10.00;;;;;;;7.48;70.10;97585.59;4972288;28;20038;-81
2021/11/07 07:00:10;;;;;;;18.80;10.27;;;;;;;7.36;70.63;97574.34;4955198;28;20491;-82
2021/11/07 07:02:39;;;;;;;17.20;9.40;;;;;;;7.53;70.67;97585.75;4971893;28;20789;-82
2021/11/07 07:05:06;;;;;;;17.48;9.95;;;;;;;7.44;70.79;97589.63;4987932;28;20510;-81
2021/11/07 07:07:35;;;;;;;16.63;10.40;;;;;;;7.55;70.42;97586.31;4981842;28;20034;-81
2021/11/07 07:10:03;;;;;;;19.08;10.35;;;;;;;7.57;70.88;97589.47;4991156;28;20026;-81
2021/11/07 07:12:33;;;;;;;17.05;9.32;;;;;;;7.68;70.24;97593.97;4995081;28;20037;-81
2021/11/07 07:15:15;;;;;;;17.00;9.85;;;;;;;7.42;70.94;97599.38;4987727;28;20101;-84
2021/11/07 07:18:03;;;;;;;15.40;8.68;;;;;;;7.64;70.77;97608.38;4941723;28;20440;-82
2021/11/07 07:36:09;;;;;;;;;;;;;;;7.03;72.83;97568.44;4976173;28;20488;-81
2021/11/07 07:38:34;;;;;;;13.77;7.00;;;;;;;7.45;71.96;97557.53;5008773;28;19940;-82
2021/11/07 07:40:59;;;;;;;14.35;7.65;;;;;;;7.46;72.06;97548.75;4990546;28;20034;-81
2021/11/07 07:43:26;;;;;;;14.68;7.72;;;;;;;7.53;71.66;97546.88;4990897;28;20045;-80
2021/11/07 07:45:54;;;;;;;12.90;7.88;;;;;;;7.68;71.21;97534.38;5008561;28;20050;-81
2021/11/07 07:48:21;;;;;;;12.18;7.00;;;;;;;7.74;70.80;97542.28;4991161;28;20042;-82
2021/11/07 07:50:46;;;;;;;11.73;7.60;;;;;;;7.72;71.07;97552.06;4994465;28;20120;-82
2021/11/07 07:53:13;;;;;;;10.05;6.30;;;;;;;7.66;71.44;97562.28;4986973;28;20102;-80
2021/11/07 07:55:39;;;;;;;12.55;7.05;;;;;;;7.81;71.36;97574.91;4975335;28;20332;-83
2021/11/07 07:58:05;;;;;;;12.63;7.55;;;;;;;7.68;71.67;97588.00;4975309;28;20041;-81
2021/11/07 08:00:30;;;;;;;11.93;7.15;;;;;;;7.90;70.88;97593.56;4974920;28;20030;-80
2021/11/07 08:02:55;;;;;;;13.80;7.32;;;;;;;7.75;71.73;97595.72;4974766;28;20037;-82
2021/11/07 08:05:23;;;;;;;11.02;6.43;;;;;;;7.76;71.76;97592.91;4958876;28;20054;-84
2021/11/07 08:07:48;;;;;;;10.00;6.68;;;;;;;7.76;71.58;97590.31;4975264;28;20046;-81
2021/11/07 08:10:14;;;;;;;12.20;6.82;;;;;;;7.76;71.83;97584.31;4991777;28;20030;-82
2021/11/07 08:12:39;;;;;;;12.25;6.28;;;;;;;7.82;71.01;97573.88;4958835;28;20030;-80
2021/11/07 08:15:06;;;;;;;10.65;6.15;;;;;;;7.89;71.08;97586.78;4975057;28;20480;-80
2021/11/07 08:17:33;;;;;;;10.40;5.82;;;;;;;7.81;70.64;97572.31;4974770;28;20057;-83
2021/11/07 08:19:58;;;;;;;11.70;6.63;;;;;;;7.67;71.98;97566.47;4958067;28;20188;-82
2021/11/07 08:22:24;;;;;;;10.13;5.28;;;;;;;7.75;72.02;97556.84;4974449;28;20551;-82
2021/11/07 08:24:49;;;;;;;10.07;5.65;;;;;;;7.92;71.59;97559.59;4974557;28;20788;-82
2021/11/07 08:27:16;;;;;;;8.65;5.75;;;;;;;7.94;71.14;97555.81;4974224;28;20058;-83
2021/11/07 08:29:44;;;;;;;10.05;5.43;;;;;;;7.94;71.29;97557.63;4974150;28;20385;-82
2021/11/07 08:32:09;;;;;;;7.13;4.28;;;;;;;7.95;71.37;97570.38;4974037;28;20026;-82
2021/11/07 08:34:35;;;;;;;8.18;4.47;;;;;;;7.63;72.50;97574.91;4974095;28;20133;-82
2021/11/07 08:39:30;;;;;;;7.28;4.78;;;;;;;7.90;71.89;97579.78;5009446;28;20581;-81
2021/11/07 08:42:02;;;;;;;6.82;4.32;;;;;;;7.97;71.77;97568.34;4993997;28;20396;-82
2021/11/07 09:01:01;;;;;;;5.35;3.90;;;;;;;7.99;71.66;97560.34;4995064;28;20037;-83
2021/11/07 09:03:42;;;;;;;5.90;4.00;;;;;;;7.88;71.95;97556.66;4993137;28;20018;-83
2021/11/07 09:08:45;;;;;;;5.45;3.58;;;;;;;8.00;71.69;97554.94;4991005;28;20077;-82
2021/11/07 09:11:13;;;;;;;5.35;3.28;;;;;;;7.89;72.01;97555.66;4983250;28;20053;-83
2021/11/07 09:13:39;;;;;;;5.40;3.20;;;;;;;8.09;71.35;97571.00;4960666;28;20084;-83
2021/11/07 09:16:07;;;;;;;4.68;3.53;;;;;;;7.97;71.95;97570.94;4961786;28;20037;-81
2021/11/07 09:18:33;;;;;;;5.82;3.47;;;;;;;8.14;71.79;97572.91;4992793;28;20282;-83
2021/11/07 09:23:38;;;;;;;4.95;3.20;;;;;;;8.30;70.88;97538.59;4988352;28;20085;-83
2021/11/07 09:26:17;;;;;;;5.07;3.35;;;;;;;8.08;71.37;97533.09;4958190;28;20076;-83
2021/11/07 09:28:55;;;;;;;7.80;4.45;;;;;;;8.00;71.77;97526.44;4975124;28;20116;-83
2021/11/07 09:36:35;;;;;;;5.80;3.45;;;;;;;8.20;70.91;97559.88;4970142;28;20060;-83
2021/11/07 09:41:38;;;;;;;7.50;3.65;;;;;;;8.36;70.86;97555.09;4992068;28;20026;-83
2021/11/07 09:44:07;;;;;;;6.78;3.47;;;;;;;8.23;71.25;97551.66;4993494;28;20040;-83
2021/11/07 09:46:46;;;;;;;4.95;3.08;;;;;;;8.12;71.42;97543.81;4992250;28;20033;-81
2021/11/07 09:51:48;;;;;;;5.35;3.53;;;;;;;8.03;71.67;97548.50;4991521;28;20042;-82
2021/11/07 09:54:16;;;;;;;4.90;3.13;;;;;;;8.05;71.69;97554.28;4961937;28;20045;-82
2021/11/07 09:56:47;;;;;;;5.18;3.35;;;;;;;8.15;71.33;97544.16;4989052;28;20092;-83
2021/11/07 09:59:13;;;;;;;4.50;3.25;;;;;;;8.21;71.15;97542.53;4941137;28;20103;-82
2021/11/07 10:01:39;;;;;;;7.25;3.72;;;;;;;8.19;71.24;97552.31;4971408;28;20061;-81
2021/11/07 10:04:04;;;;;;;5.30;3.35;;;;;;;8.15;71.73;97554.53;4956366;28;20523;-82
2021/11/07 10:06:43;;;;;;;4.10;2.83;;;;;;;8.15;70.87;97543.38;4952741;28;20030;-82
2021/11/07 10:09:12;;;;;;;4.78;3.38;;;;;;;8.30;71.30;97541.19;4971939;28;20027;-82
2021/11/07 10:12:03;;;;;;;5.63;3.33;;;;;;;8.21;71.35;97539.94;4971096;28;20038;-82
2021/11/07 10:14:47;;;;;;;4.25;3.05;;;;;;;8.22;71.15;97544.09;4972974;28;20431;-82
2021/11/07 10:17:26;;;;;;;5.07;3.10;;;;;;;8.24;71.14;97542.06;4972147;28;20034;-82
2021/11/07 10:20:29;;;;;;;4.18;2.85;;;;;;;8.37;70.69;97548.88;4985125;28;20395;-82
2021/11/07 10:23:00;;;;;;;3.70;2.70;;;;;;;8.51;70.61;97547.72;4990049;28;20042;-82
2021/11/07 10:25:50;;;;;;;3.45;2.60;;;;;;;8.31;71.72;97537.59;4991669;28;20029;-81
2021/11/07 10:28:15;;;;;;;3.85;2.50;;;;;;;8.43;71.38;97548.03;4975715;28;20117;-81
2021/11/07 10:30:46;;;;;;;4.50;2.67;;;;;;;8.43;71.53;97551.44;4974610;28;20120;-81
2021/11/07 10:33:23;;;;;;;5.53;3.22;;;;;;;8.54;71.10;97542.09;4990893;28;20515;-81
2021/11/07 10:39:03;;;;;;;4.50;3.05;;;;;;;8.65;71.49;97553.50;4967501;28;20037;-81
2021/11/07 10:52:57;;;;;;;3.90;2.45;;;;;;;8.63;71.75;97534.78;4990785;28;20030;-81
2021/11/07 10:55:25;;;;;;;3.78;2.13;;;;;;;8.72;71.65;97520.47;4971589;28;20130;-81
2021/11/07 10:58:00;;;;;;;3.45;2.47;;;;;;;8.47;72.62;97504.28;4971058;28;20046;-81
2021/11/07 11:00:39;;;;;;;3.05;2.05;;;;;;;8.55;72.09;97512.53;4971059;28;20070;-81
2021/11/07 11:03:18;;;;;;;2.63;1.90;;;;;;;8.59;71.95;97507.69;5001133;28;20029;-81
2021/11/07 11:05:50;;;;;;;2.40;1.80;;;;;;;8.92;70.96;97514.16;5005828;28;20036;-81
2021/11/07 11:08:28;;;;;;;3.28;2.00;;;;;;;8.90;71.03;97514.38;4988080;28;20029;-81
2021/11/07 11:11:09;;;;;;;2.97;1.67;;;;;;;8.76;71.63;97526.78;5007392;28;20442;-80
2021/11/07 11:13:49;;;;;;;2.53;1.90;;;;;;;8.79;72.19;97508.16;5006420;28;20032;-79
2021/11/07 11:19:18;;;;;;;2.88;2.25;;;;;;;8.76;71.37;97498.22;5007743;28;20304;-80
2021/11/07 11:22:39;;;;;;;3.92;1.90;;;;;;;8.95;70.87;97506.72;5008071;28;20044;-81
2021/11/07 11:38:01;;;;;;;2.08;1.75;;;;;;;9.08;71.17;97489.31;4988998;28;20033;-79
2021/11/07 11:40:54;;;;;;;2.40;1.88;;;;;;;9.18;70.62;97479.97;5005645;28;20480;-79
2021/11/07 11:46:52;;;;;;;3.53;2.65;;;;;;;8.74;71.77;97483.88;4985525;28;20045;-78
2021/11/07 11:49:42;;;;;;;3.42;2.35;;;;;;;8.80;71.62;97478.59;4984255;28;20085;-79
2021/11/07 11:54:53;;;;;;;2.90;2.30;;;;;;;9.04;70.94;97476.00;5001738;28;20030;-78
2021/11/07 11:57:48;;;;;;;4.15;2.67;;;;;;;9.10;70.95;97477.69;5006837;28;20046;-79
2021/11/07 12:02:52;;;;;;;3.75;2.95;;;;;;;8.91;71.98;97477.03;4970676;28;20035;-79
2021/11/07 12:05:37;;;;;;;4.22;2.80;;;;;;;8.96;71.35;97474.53;4964122;28;20023;-79
2021/11/07 12:10:47;;;;;;;3.65;2.78;;;;;;;9.16;71.01;97460.41;4992804;28;20037;-79
2021/11/07 12:13:42;;;;;;;4.50;3.00;;;;;;;9.08;70.87;97464.16;4985385;28;20068;-79
2021/11/07 12:16:27;;;;;;;3.30;2.60;;;;;;;9.33;70.61;97463.09;4989415;28;20557;-79
2021/11/07 12:19:02;;;;;;;;;;;;;;;8.92;71.58;97463.00;4993907;28;20030;-79
2021/11/07 12:21:57;;;;;;;4.47;2.92;;;;;;;9.04;71.61;97452.63;5006784;28;20564;-79
2021/11/07 12:24:28;;;;;;;4.35;2.80;;;;;;;9.17;71.23;97443.81;4990393;28;20030;-79
2021/11/07 12:27:28;;;;;;;3.58;2.47;;;;;;;9.12;70.93;97452.28;4974779;28;20022;-79
2021/11/07 12:29:55;;;;;;;3.65;2.97;;;;;;;9.20;71.06;97448.53;4975220;28;20034;-81
2021/11/07 12:32:30;;;;;;;8.68;3.70;;;;;;;9.16;71.14;97455.22;5007591;28;20083;-81
2021/11/07 12:35:23;;;;;;;3.88;3.00;;;;;;;9.03;71.79;97445.84;5007753;28;20036;-81
2021/11/07 12:40:59;;;;;;;4.63;2.95;;;;;;;9.09;71.71;97434.53;4974155;28;20045;-81
2021/11/07 12:43:31;;;;;;;5.30;3.47;;;;;;;9.21;71.19;97436.34;4974816;28;20400;-81
2021/11/07 12:46:26;;;;;;;4.25;3.50;;;;;;;9.06;71.98;97442.78;4992221;28;20504;-81
2021/11/07 12:48:54;;;;;;;5.30;3.47;;;;;;;9.31;71.09;97444.34;4975869;28;20030;-81
2021/11/07 12:51:24;;;;;;;6.30;3.28;;;;;;;9.31;71.07;97442.53;4990469;28;20050;-81
2021/11/07 12:54:15;;;;;;;5.80;3.97;;;;;;;9.16;71.51;97443.00;4991375;28;20635;-79
2021/11/07 12:56:43;;;;;;;4.65;3.03;;;;;;;9.19;71.31;97441.78;4982766;28;20046;-79
2021/11/07 12:59:55;;;;;;;4.15;3.15;;;;;;;9.22;71.50;97443.91;4990353;28;20067;-79
2021/11/07 13:02:28;;;;;;;4.05;2.78;;;;;;;9.31;71.41;97444.34;4987449;28;20456;-78
2021/11/07 13:05:00;;;;;;;5.03;3.75;;;;;;;9.32;70.50;97438.94;4990738;28;20026;-79
2021/11/07 13:07:33;;;;;;;4.70;2.88;;;;;;;9.36;71.03;97441.84;4959473;28;20030;-79
2021/11/07 13:10:05;;;;;;;4.10;3.05;;;;;;;9.34;71.44;97443.91;4957959;28;20383;-79
2021/11/07 13:12:49;;;;;;;3.70;2.55;;;;;;;9.47;70.92;97441.03;4974241;28;20041;-78
2021/11/07 13:15:38;;;;;;;5.45;3.70;;;;;;;9.50;71.28;97456.16;4943469;28;20073;-79
2021/11/07 13:21:23;;;;;;;3.88;3.13;;;;;;;9.53;71.02;97439.31;4975967;28;20117;-79
2021/11/07 13:32:36;;;;;;;4.60;3.28;;;;;;;9.55;71.22;97432.88;4995960;28;20550;-79
2021/11/07 13:35:07;;;;;;;4.25;3.08;;;;;;;9.60;71.09;97447.78;4961456;28;20499;-78
2021/11/07 13:37:37;;;;;;;4.72;2.88;;;;;;;9.61;70.84;97446.75;5010072;28;20033;-79
2021/11/07 13:40:18;;;;;;;4.35;3.22;;;;;;;9.54;70.67;97436.50;5009251;28;20076;-79
2021/11/07 13:42:45;;;;;;;5.38;3.75;;;;;;;9.43;71.44;97419.13;4993283;28;20032;-79
2021/11/07 13:45:31;;;;;;;4.20;3.00;;;;;;;9.22;72.10;97414.53;4976379;28;20128;-79
2021/11/07 13:48:00;;;;;;;4.13;3.40;;;;;;;9.54;71.73;97420.09;4992714;28;20489;-79
2021/11/07 13:50:32;;;;;;;3.97;2.65;;;;;;;9.72;70.39;97425.13;4992813;28;20040;-79
2021/11/07 13:52:58;;;;;;;4.22;2.70;;;;;;;9.77;70.30;97419.22;4992822;28;20559;-79